sensor_id;sensor_type;location;lat;lon;timestamp;P1;durP1;ratioP1;P2;durP2;ratioP2
5871;SDS011;2962;51.312;7.378;2023-03-26T00:01:19;10.67;;;2.67;;
5871;SDS011;2962;51.312;7.378;2023-03-26T00:03:47;5.63;;;2.90;;
5871;SDS011;2962;51.312;7.378;2023-03-26T00:06:17;9.57;;;3.07;;
5871;SDS011;2962;51.312;7.378;2023-03-26T00:08:44;11.57;;;3.33;;
5871;SDS011;2962;51.312;7.378;2023-03-26T00:11:10;13.93;;;3.40;;
5871;SDS011;2962;51.312;7.378;2023-03-26T00:13:37;11.33;;;4.13;;
5871;SDS011;2962;51.312;7.378;2023-03-26T00:16:04;15.40;;;3.97;;
5871;SDS011;2962;51.312;7.378;2023-03-26T00:18:30;15.33;;;4.30;;
5871;SDS011;2962;51.312;7.378;2023-03-26T00:20:59;13.53;;;3.60;;
5871;SDS011;2962;51.312;7.378;2023-03-26T00:23:26;17.13;;;3.70;;
5871;SDS011;2962;51.312;7.378;2023-03-26T00:25:53;19.27;;;3.67;;
5871;SDS011;2962;51.312;7.378;2023-03-26T00:28:20;25.50;;;3.73;;
5871;SDS011;2962;51.312;7.378;2023-03-26T00:30:55;22.37;;;4.00;;
5871;SDS011;2962;51.312;7.378;2023-03-26T00:33:22;16.10;;;3.50;;
5871;SDS011;2962;51.312;7.378;2023-03-26T00:35:50;25.47;;;4.40;;
5871;SDS011;2962;51.312;7.378;2023-03-26T00:38:17;25.27;;;3.83;;
5871;SDS011;2962;51.312;7.378;2023-03-26T00:40:43;19.57;;;3.87;;
5871;SDS011;2962;51.312;7.378;2023-03-26T00:43:12;17.53;;;3.50;;
5871;SDS011;2962;51.312;7.378;2023-03-26T00:45:48;32.03;;;5.27;;
5871;SDS011;2962;51.312;7.378;2023-03-26T00:48:15;30.97;;;4.00;;
5871;SDS011;2962;51.312;7.378;2023-03-26T00:50:42;22.53;;;4.63;;
5871;SDS011;2962;51.312;7.378;2023-03-26T00:53:09;22.10;;;3.70;;
5871;SDS011;2962;51.312;7.378;2023-03-26T00:55:44;32.60;;;4.17;;
5871;SDS011;2962;51.312;7.378;2023-03-26T00:58:11;34.00;;;5.10;;
5871;SDS011;2962;51.312;7.378;2023-03-26T01:00:45;51.43;;;6.57;;
5871;SDS011;2962;51.312;7.378;2023-03-26T01:03:15;28.20;;;5.47;;
5871;SDS011;2962;51.312;7.378;2023-03-26T01:05:44;32.57;;;5.00;;
5871;SDS011;2962;51.312;7.378;2023-03-26T01:10:52;32.43;;;4.00;;
5871;SDS011;2962;51.312;7.378;2023-03-26T01:13:26;17.33;;;3.17;;
5871;SDS011;2962;51.312;7.378;2023-03-26T01:15:53;30.90;;;4.17;;
5871;SDS011;2962;51.312;7.378;2023-03-26T01:18:20;19.93;;;3.97;;
5871;SDS011;2962;51.312;7.378;2023-03-26T01:20:50;31.57;;;3.50;;
5871;SDS011;2962;51.312;7.378;2023-03-26T01:23:22;34.67;;;4.30;;
5871;SDS011;2962;51.312;7.378;2023-03-26T01:25:54;24.87;;;4.03;;
5871;SDS011;2962;51.312;7.378;2023-03-26T01:28:29;35.47;;;5.00;;
5871;SDS011;2962;51.312;7.378;2023-03-26T01:31:01;24.73;;;3.70;;
5871;SDS011;2962;51.312;7.378;2023-03-26T01:34:12;44.33;;;4.40;;
5871;SDS011;2962;51.312;7.378;2023-03-26T01:36:52;29.37;;;4.30;;
5871;SDS011;2962;51.312;7.378;2023-03-26T01:42:36;29.27;;;4.23;;
5871;SDS011;2962;51.312;7.378;2023-03-26T01:47:39;19.03;;;3.30;;
5871;SDS011;2962;51.312;7.378;2023-03-26T01:50:07;38.80;;;4.10;;
5871;SDS011;2962;51.312;7.378;2023-03-26T01:52:32;23.90;;;4.57;;
5871;SDS011;2962;51.312;7.378;2023-03-26T01:54:58;18.03;;;4.47;;
5871;SDS011;2962;51.312;7.378;2023-03-26T02:00:14;34.87;;;4.03;;
5871;SDS011;2962;51.312;7.378;2023-03-26T02:02:55;20.73;;;3.57;;
5871;SDS011;2962;51.312;7.378;2023-03-26T02:05:43;21.43;;;3.30;;
5871;SDS011;2962;51.312;7.378;2023-03-26T02:08:33;32.63;;;4.07;;
5871;SDS011;2962;51.312;7.378;2023-03-26T02:11:03;25.37;;;3.67;;
5871;SDS011;2962;51.312;7.378;2023-03-26T02:13:34;40.43;;;3.80;;
5871;SDS011;2962;51.312;7.378;2023-03-26T02:16:01;32.43;;;5.50;;
5871;SDS011;2962;51.312;7.378;2023-03-26T02:18:28;33.10;;;4.37;;
5871;SDS011;2962;51.312;7.378;2023-03-26T02:21:01;27.90;;;3.33;;
5871;SDS011;2962;51.312;7.378;2023-03-26T02:23:29;33.17;;;3.53;;
5871;SDS011;2962;51.312;7.378;2023-03-26T02:25:59;46.77;;;6.10;;
5871;SDS011;2962;51.312;7.378;2023-03-26T02:28:25;26.33;;;3.80;;
5871;SDS011;2962;51.312;7.378;2023-03-26T02:30:50;25.43;;;4.33;;
5871;SDS011;2962;51.312;7.378;2023-03-26T02:33:16;40.40;;;4.97;;
5871;SDS011;2962;51.312;7.378;2023-03-26T02:35:41;35.83;;;4.60;;
5871;SDS011;2962;51.312;7.378;2023-03-26T02:38:09;37.80;;;4.97;;
5871;SDS011;2962;51.312;7.378;2023-03-26T02:40:38;21.73;;;3.90;;
5871;SDS011;2962;51.312;7.378;2023-03-26T02:43:03;25.20;;;3.63;;
5871;SDS011;2962;51.312;7.378;2023-03-26T02:45:29;24.10;;;4.00;;
5871;SDS011;2962;51.312;7.378;2023-03-26T02:47:54;32.90;;;5.27;;
5871;SDS011;2962;51.312;7.378;2023-03-26T02:50:20;27.37;;;3.90;;
5871;SDS011;2962;51.312;7.378;2023-03-26T02:52:45;24.23;;;4.40;;
5871;SDS011;2962;51.312;7.378;2023-03-26T02:55:13;35.37;;;4.30;;
5871;SDS011;2962;51.312;7.378;2023-03-26T02:57:39;19.97;;;3.50;;
5871;SDS011;2962;51.312;7.378;2023-03-26T03:00:05;34.10;;;4.10;;
5871;SDS011;2962;51.312;7.378;2023-03-26T03:02:32;24.00;;;3.77;;
5871;SDS011;2962;51.312;7.378;2023-03-26T03:04:58;32.73;;;4.00;;
5871;SDS011;2962;51.312;7.378;2023-03-26T03:07:25;27.77;;;4.13;;
5871;SDS011;2962;51.312;7.378;2023-03-26T03:09:51;26.30;;;3.90;;
5871;SDS011;2962;51.312;7.378;2023-03-26T03:12:16;34.37;;;3.90;;
5871;SDS011;2962;51.312;7.378;2023-03-26T03:14:41;30.50;;;4.53;;
5871;SDS011;2962;51.312;7.378;2023-03-26T03:17:06;24.17;;;3.90;;
5871;SDS011;2962;51.312;7.378;2023-03-26T03:19:32;27.83;;;4.40;;
5871;SDS011;2962;51.312;7.378;2023-03-26T03:21:57;22.37;;;3.57;;
5871;SDS011;2962;51.312;7.378;2023-03-26T03:24:22;31.30;;;4.10;;
5871;SDS011;2962;51.312;7.378;2023-03-26T03:26:48;27.97;;;4.53;;
5871;SDS011;2962;51.312;7.378;2023-03-26T03:29:14;17.70;;;4.30;;
5871;SDS011;2962;51.312;7.378;2023-03-26T03:31:39;26.90;;;3.57;;
5871;SDS011;2962;51.312;7.378;2023-03-26T03:34:05;18.57;;;3.50;;
5871;SDS011;2962;51.312;7.378;2023-03-26T03:36:30;25.20;;;3.93;;
5871;SDS011;2962;51.312;7.378;2023-03-26T03:38:57;25.80;;;4.90;;
5871;SDS011;2962;51.312;7.378;2023-03-26T03:41:26;35.97;;;4.83;;
5871;SDS011;2962;51.312;7.378;2023-03-26T03:43:52;29.17;;;4.97;;
5871;SDS011;2962;51.312;7.378;2023-03-26T03:46:17;30.63;;;4.23;;
5871;SDS011;2962;51.312;7.378;2023-03-26T03:48:43;26.20;;;4.17;;
5871;SDS011;2962;51.312;7.378;2023-03-26T03:51:13;27.97;;;4.00;;
5871;SDS011;2962;51.312;7.378;2023-03-26T03:53:38;32.07;;;4.07;;
5871;SDS011;2962;51.312;7.378;2023-03-26T03:56:04;34.60;;;4.30;;
5871;SDS011;2962;51.312;7.378;2023-03-26T03:58:34;27.27;;;3.53;;
5871;SDS011;2962;51.312;7.378;2023-03-26T04:00:59;23.43;;;3.60;;
5871;SDS011;2962;51.312;7.378;2023-03-26T04:03:28;32.63;;;4.30;;
5871;SDS011;2962;51.312;7.378;2023-03-26T04:05:54;29.50;;;4.13;;
5871;SDS011;2962;51.312;7.378;2023-03-26T04:08:20;26.73;;;3.67;;
5871;SDS011;2962;51.312;7.378;2023-03-26T04:10:46;24.97;;;5.03;;
5871;SDS011;2962;51.312;7.378;2023-03-26T04:13:12;27.27;;;4.60;;
5871;SDS011;2962;51.312;7.378;2023-03-26T04:15:39;28.03;;;4.77;;
5871;SDS011;2962;51.312;7.378;2023-03-26T04:18:05;25.10;;;3.27;;
5871;SDS011;2962;51.312;7.378;2023-03-26T04:20:35;27.93;;;3.47;;
5871;SDS011;2962;51.312;7.378;2023-03-26T04:23:05;18.80;;;3.10;;
5871;SDS011;2962;51.312;7.378;2023-03-26T04:25:32;28.30;;;3.53;;
5871;SDS011;2962;51.312;7.378;2023-03-26T04:28:00;18.33;;;3.50;;
5871;SDS011;2962;51.312;7.378;2023-03-26T04:30:30;25.83;;;3.53;;
5871;SDS011;2962;51.312;7.378;2023-03-26T04:32:57;16.17;;;3.10;;
5871;SDS011;2962;51.312;7.378;2023-03-26T04:35:24;27.80;;;3.67;;
5871;SDS011;2962;51.312;7.378;2023-03-26T04:37:50;25.37;;;4.00;;
5871;SDS011;2962;51.312;7.378;2023-03-26T04:40:18;24.57;;;3.03;;
5871;SDS011;2962;51.312;7.378;2023-03-26T04:42:45;30.97;;;4.40;;
5871;SDS011;2962;51.312;7.378;2023-03-26T04:45:15;23.57;;;3.10;;
5871;SDS011;2962;51.312;7.378;2023-03-26T04:47:46;18.93;;;3.13;;
5871;SDS011;2962;51.312;7.378;2023-03-26T04:50:12;13.90;;;2.57;;
5871;SDS011;2962;51.312;7.378;2023-03-26T04:52:38;21.43;;;3.47;;
5871;SDS011;2962;51.312;7.378;2023-03-26T04:55:11;17.87;;;3.43;;
5871;SDS011;2962;51.312;7.378;2023-03-26T04:57:43;19.00;;;2.93;;
5871;SDS011;2962;51.312;7.378;2023-03-26T05:00:15;17.00;;;3.50;;
5871;SDS011;2962;51.312;7.378;2023-03-26T05:02:42;19.70;;;3.73;;
5871;SDS011;2962;51.312;7.378;2023-03-26T05:05:08;17.03;;;2.97;;
5871;SDS011;2962;51.312;7.378;2023-03-26T05:07:34;17.73;;;3.53;;
5871;SDS011;2962;51.312;7.378;2023-03-26T05:10:00;17.77;;;3.00;;
5871;SDS011;2962;51.312;7.378;2023-03-26T05:12:27;26.20;;;4.70;;
5871;SDS011;2962;51.312;7.378;2023-03-26T05:14:53;16.03;;;3.07;;
5871;SDS011;2962;51.312;7.378;2023-03-26T05:17:18;28.10;;;3.17;;
5871;SDS011;2962;51.312;7.378;2023-03-26T05:19:45;14.47;;;2.87;;
5871;SDS011;2962;51.312;7.378;2023-03-26T05:22:11;22.13;;;3.80;;
5871;SDS011;2962;51.312;7.378;2023-03-26T05:24:37;28.67;;;3.50;;
5871;SDS011;2962;51.312;7.378;2023-03-26T05:27:02;20.60;;;3.53;;
5871;SDS011;2962;51.312;7.378;2023-03-26T05:29:27;22.03;;;3.50;;
5871;SDS011;2962;51.312;7.378;2023-03-26T05:31:53;17.33;;;3.20;;
5871;SDS011;2962;51.312;7.378;2023-03-26T05:34:18;15.97;;;3.67;;
5871;SDS011;2962;51.312;7.378;2023-03-26T05:36:44;24.40;;;4.93;;
5871;SDS011;2962;51.312;7.378;2023-03-26T05:39:10;19.90;;;3.30;;
5871;SDS011;2962;51.312;7.378;2023-03-26T05:41:36;19.50;;;4.00;;
5871;SDS011;2962;51.312;7.378;2023-03-26T05:44:02;19.40;;;3.40;;
5871;SDS011;2962;51.312;7.378;2023-03-26T05:46:27;12.07;;;3.20;;
5871;SDS011;2962;51.312;7.378;2023-03-26T05:48:52;23.40;;;3.17;;
5871;SDS011;2962;51.312;7.378;2023-03-26T05:51:18;17.20;;;3.20;;
5871;SDS011;2962;51.312;7.378;2023-03-26T05:53:44;13.43;;;3.27;;
5871;SDS011;2962;51.312;7.378;2023-03-26T05:56:10;10.20;;;2.60;;
5871;SDS011;2962;51.312;7.378;2023-03-26T05:58:35;14.67;;;3.17;;
5871;SDS011;2962;51.312;7.378;2023-03-26T06:01:05;9.27;;;2.73;;
5871;SDS011;2962;51.312;7.378;2023-03-26T06:03:36;21.80;;;3.37;;
5871;SDS011;2962;51.312;7.378;2023-03-26T06:06:06;20.87;;;3.10;;
5871;SDS011;2962;51.312;7.378;2023-03-26T06:08:33;33.20;;;3.57;;
5871;SDS011;2962;51.312;7.378;2023-03-26T06:10:59;17.20;;;3.27;;
5871;SDS011;2962;51.312;7.378;2023-03-26T06:13:26;28.50;;;3.80;;
5871;SDS011;2962;51.312;7.378;2023-03-26T06:15:52;16.90;;;3.50;;
5871;SDS011;2962;51.312;7.378;2023-03-26T06:18:18;20.37;;;2.80;;
5871;SDS011;2962;51.312;7.378;2023-03-26T06:20:44;15.07;;;2.50;;
5871;SDS011;2962;51.312;7.378;2023-03-26T06:23:10;14.37;;;3.30;;
5871;SDS011;2962;51.312;7.378;2023-03-26T06:25:35;11.03;;;2.40;;
5871;SDS011;2962;51.312;7.378;2023-03-26T06:28:02;17.27;;;3.03;;
5871;SDS011;2962;51.312;7.378;2023-03-26T06:30:27;24.77;;;2.83;;
5871;SDS011;2962;51.312;7.378;2023-03-26T06:32:53;22.87;;;3.37;;
5871;SDS011;2962;51.312;7.378;2023-03-26T06:35:18;18.10;;;2.70;;
5871;SDS011;2962;51.312;7.378;2023-03-26T06:37:43;12.50;;;2.63;;
5871;SDS011;2962;51.312;7.378;2023-03-26T06:40:09;13.50;;;3.43;;
5871;SDS011;2962;51.312;7.378;2023-03-26T06:42:35;15.90;;;3.30;;
5871;SDS011;2962;51.312;7.378;2023-03-26T06:45:00;17.60;;;3.10;;
5871;SDS011;2962;51.312;7.378;2023-03-26T06:47:25;28.53;;;5.27;;
5871;SDS011;2962;51.312;7.378;2023-03-26T06:49:51;25.73;;;4.40;;
5871;SDS011;2962;51.312;7.378;2023-03-26T06:52:16;15.20;;;3.53;;
5871;SDS011;2962;51.312;7.378;2023-03-26T06:54:41;17.07;;;2.63;;
5871;SDS011;2962;51.312;7.378;2023-03-26T06:57:06;19.47;;;2.57;;
5871;SDS011;2962;51.312;7.378;2023-03-26T06:59:32;11.37;;;2.53;;
5871;SDS011;2962;51.312;7.378;2023-03-26T07:01:57;13.00;;;3.07;;
5871;SDS011;2962;51.312;7.378;2023-03-26T07:04:22;17.13;;;3.50;;
5871;SDS011;2962;51.312;7.378;2023-03-26T07:06:48;18.33;;;3.53;;
5871;SDS011;2962;51.312;7.378;2023-03-26T07:09:13;18.23;;;2.50;;
5871;SDS011;2962;51.312;7.378;2023-03-26T07:11:39;25.90;;;3.53;;
5871;SDS011;2962;51.312;7.378;2023-03-26T07:14:04;17.77;;;3.33;;
5871;SDS011;2962;51.312;7.378;2023-03-26T07:16:30;15.67;;;2.77;;
5871;SDS011;2962;51.312;7.378;2023-03-26T07:18:55;19.70;;;3.07;;
5871;SDS011;2962;51.312;7.378;2023-03-26T07:21:20;9.50;;;2.90;;
5871;SDS011;2962;51.312;7.378;2023-03-26T07:23:46;9.67;;;2.13;;
5871;SDS011;2962;51.312;7.378;2023-03-26T07:26:36;16.60;;;2.53;;
5871;SDS011;2962;51.312;7.378;2023-03-26T07:29:13;17.90;;;3.17;;
5871;SDS011;2962;51.312;7.378;2023-03-26T07:31:50;19.83;;;3.03;;
5871;SDS011;2962;51.312;7.378;2023-03-26T07:37:12;20.93;;;2.83;;
5871;SDS011;2962;51.312;7.378;2023-03-26T07:44:58;16.83;;;2.63;;
5871;SDS011;2962;51.312;7.378;2023-03-26T07:47:33;11.40;;;2.60;;
5871;SDS011;2962;51.312;7.378;2023-03-26T07:49:59;13.63;;;2.67;;
5871;SDS011;2962;51.312;7.378;2023-03-26T07:52:25;26.80;;;3.63;;
5871;SDS011;2962;51.312;7.378;2023-03-26T07:54:51;18.80;;;2.87;;
5871;SDS011;2962;51.312;7.378;2023-03-26T07:59:57;17.10;;;3.30;;
5871;SDS011;2962;51.312;7.378;2023-03-26T08:05:26;10.50;;;3.00;;
5871;SDS011;2962;51.312;7.378;2023-03-26T08:07:59;15.00;;;2.97;;
5871;SDS011;2962;51.312;7.378;2023-03-26T08:13:20;13.00;;;3.23;;
5871;SDS011;2962;51.312;7.378;2023-03-26T08:21:27;10.10;;;3.07;;
5871;SDS011;2962;51.312;7.378;2023-03-26T08:26:54;12.87;;;3.30;;
5871;SDS011;2962;51.312;7.378;2023-03-26T08:32:15;14.63;;;2.90;;
5871;SDS011;2962;51.312;7.378;2023-03-26T08:34:42;20.17;;;3.07;;
5871;SDS011;2962;51.312;7.378;2023-03-26T08:37:08;9.73;;;2.27;;
5871;SDS011;2962;51.312;7.378;2023-03-26T08:39:33;9.30;;;2.27;;
5871;SDS011;2962;51.312;7.378;2023-03-26T08:47:20;7.77;;;3.10;;
5871;SDS011;2962;51.312;7.378;2023-03-26T08:50:13;6.33;;;1.50;;
5871;SDS011;2962;51.312;7.378;2023-03-26T09:18:20;4.03;;;1.67;;
5871;SDS011;2962;51.312;7.378;2023-03-26T09:29:40;8.73;;;1.97;;
5871;SDS011;2962;51.312;7.378;2023-03-26T09:32:28;2.33;;;1.57;;
5871;SDS011;2962;51.312;7.378;2023-03-26T09:35:23;8.80;;;1.67;;
5871;SDS011;2962;51.312;7.378;2023-03-26T09:38:29;10.40;;;7.30;;
5871;SDS011;2962;51.312;7.378;2023-03-26T09:41:20;6.80;;;3.40;;
5871;SDS011;2962;51.312;7.378;2023-03-26T09:43:52;5.73;;;3.57;;
5871;SDS011;2962;51.312;7.378;2023-03-26T09:46:36;3.97;;;2.00;;
5871;SDS011;2962;51.312;7.378;2023-03-26T09:49:28;7.97;;;5.20;;
5871;SDS011;2962;51.312;7.378;2023-03-26T09:52:13;5.50;;;2.37;;
5871;SDS011;2962;51.312;7.378;2023-03-26T09:55:11;5.40;;;2.40;;
5871;SDS011;2962;51.312;7.378;2023-03-26T09:58:03;6.10;;;4.17;;
5871;SDS011;2962;51.312;7.378;2023-03-26T10:00:50;6.07;;;2.47;;
5871;SDS011;2962;51.312;7.378;2023-03-26T10:08:57;0.90;;;0.30;;
5871;SDS011;2962;51.312;7.378;2023-03-26T10:14:21;1.53;;;0.53;;
5871;SDS011;2962;51.312;7.378;2023-03-26T10:20:26;1.57;;;1.57;;
5871;SDS011;2962;51.312;7.378;2023-03-26T10:30:56;1.60;;;0.80;;
5871;SDS011;2962;51.312;7.378;2023-03-26T10:36:12;2.30;;;2.30;;
5871;SDS011;2962;51.312;7.378;2023-03-26T10:44:46;0.73;;;0.73;;
5871;SDS011;2962;51.312;7.378;2023-03-26T10:53:03;2.80;;;2.70;;
5871;SDS011;2962;51.312;7.378;2023-03-26T10:55:59;1.60;;;1.60;;
5871;SDS011;2962;51.312;7.378;2023-03-26T10:58:37;1.40;;;1.40;;
5871;SDS011;2962;51.312;7.378;2023-03-26T11:01:05;1.33;;;0.90;;
5871;SDS011;2962;51.312;7.378;2023-03-26T11:03:45;1.55;;;1.40;;
5871;SDS011;2962;51.312;7.378;2023-03-26T11:19:49;0.43;;;0.43;;
5871;SDS011;2962;51.312;7.378;2023-03-26T11:22:30;0.70;;;0.70;;
5871;SDS011;2962;51.312;7.378;2023-03-26T11:25:57;0.77;;;0.63;;
5871;SDS011;2962;51.312;7.378;2023-03-26T11:28:15;0.83;;;0.83;;
5871;SDS011;2962;51.312;7.378;2023-03-26T11:30:52;0.53;;;0.50;;
5871;SDS011;2962;51.312;7.378;2023-03-26T11:33:24;0.70;;;0.70;;
5871;SDS011;2962;51.312;7.378;2023-03-26T11:35:57;1.63;;;1.53;;
5871;SDS011;2962;51.312;7.378;2023-03-26T11:38:45;1.17;;;1.17;;
5871;SDS011;2962;51.312;7.378;2023-03-26T11:41:23;0.70;;;0.70;;
5871;SDS011;2962;51.312;7.378;2023-03-26T11:43:56;2.93;;;0.40;;
5871;SDS011;2962;51.312;7.378;2023-03-26T11:46:27;0.83;;;0.40;;
5871;SDS011;2962;51.312;7.378;2023-03-26T11:49:15;0.40;;;0.40;;
5871;SDS011;2962;51.312;7.378;2023-03-26T11:51:40;0.60;;;0.60;;
5871;SDS011;2962;51.312;7.378;2023-03-26T11:54:11;0.73;;;0.73;;
5871;SDS011;2962;51.312;7.378;2023-03-26T11:59:16;0.77;;;0.77;;
5871;SDS011;2962;51.312;7.378;2023-03-26T12:01:54;2.10;;;0.80;;
5871;SDS011;2962;51.312;7.378;2023-03-26T12:04:26;0.50;;;0.50;;
5871;SDS011;2962;51.312;7.378;2023-03-26T12:07:03;1.53;;;1.07;;
5871;SDS011;2962;51.312;7.378;2023-03-26T12:09:33;0.77;;;0.50;;
5871;SDS011;2962;51.312;7.378;2023-03-26T12:11:59;1.00;;;1.00;;
5871;SDS011;2962;51.312;7.378;2023-03-26T12:14:28;0.40;;;0.40;;
5871;SDS011;2962;51.312;7.378;2023-03-26T12:16:59;0.30;;;0.30;;
5871;SDS011;2962;51.312;7.378;2023-03-26T12:19:32;1.13;;;0.60;;
5871;SDS011;2962;51.312;7.378;2023-03-26T12:22:02;1.03;;;0.30;;
5871;SDS011;2962;51.312;7.378;2023-03-26T12:26:58;1.40;;;1.40;;
5871;SDS011;2962;51.312;7.378;2023-03-26T12:29:29;0.60;;;0.60;;
5871;SDS011;2962;51.312;7.378;2023-03-26T12:32:05;0.80;;;0.80;;
5871;SDS011;2962;51.312;7.378;2023-03-26T12:34:37;1.63;;;0.60;;
5871;SDS011;2962;51.312;7.378;2023-03-26T12:37:04;0.50;;;0.50;;
5871;SDS011;2962;51.312;7.378;2023-03-26T12:41:59;0.83;;;0.83;;
5871;SDS011;2962;51.312;7.378;2023-03-26T12:44:34;0.90;;;0.80;;
5871;SDS011;2962;51.312;7.378;2023-03-26T12:49:52;1.40;;;1.40;;
5871;SDS011;2962;51.312;7.378;2023-03-26T12:57:56;0.30;;;0.30;;
5871;SDS011;2962;51.312;7.378;2023-03-26T13:00:52;0.50;;;0.50;;
5871;SDS011;2962;51.312;7.378;2023-03-26T13:03:28;0.43;;;0.43;;
5871;SDS011;2962;51.312;7.378;2023-03-26T13:14:19;0.60;;;0.60;;
5871;SDS011;2962;51.312;7.378;2023-03-26T13:20:16;0.30;;;0.30;;
5871;SDS011;2962;51.312;7.378;2023-03-26T13:39:23;1.17;;;1.17;;
5871;SDS011;2962;51.312;7.378;2023-03-26T13:47:24;0.63;;;0.50;;
5871;SDS011;2962;51.312;7.378;2023-03-26T13:49:54;0.40;;;0.40;;
5871;SDS011;2962;51.312;7.378;2023-03-26T13:52:44;0.40;;;0.40;;
5871;SDS011;2962;51.312;7.378;2023-03-26T14:03:57;0.43;;;0.43;;
5871;SDS011;2962;51.312;7.378;2023-03-26T14:06:36;0.50;;;0.50;;
5871;SDS011;2962;51.312;7.378;2023-03-26T14:09:28;0.60;;;0.60;;
5871;SDS011;2962;51.312;7.378;2023-03-26T14:16:54;0.60;;;0.60;;
5871;SDS011;2962;51.312;7.378;2023-03-26T14:19:42;0.70;;;0.70;;
5871;SDS011;2962;51.312;7.378;2023-03-26T14:47:04;0.50;;;0.50;;
5871;SDS011;2962;51.312;7.378;2023-03-26T14:52:53;0.57;;;0.57;;
5871;SDS011;2962;51.312;7.378;2023-03-26T14:55:39;0.40;;;0.40;;
5871;SDS011;2962;51.312;7.378;2023-03-26T14:58:23;0.30;;;0.30;;
5871;SDS011;2962;51.312;7.378;2023-03-26T15:07:35;0.47;;;0.40;;
5871;SDS011;2962;51.312;7.378;2023-03-26T15:21:35;0.60;;;0.60;;
5871;SDS011;2962;51.312;7.378;2023-03-26T15:24:47;1.80;;;0.67;;
5871;SDS011;2962;51.312;7.378;2023-03-26T15:27:22;0.70;;;0.70;;
5871;SDS011;2962;51.312;7.378;2023-03-26T15:44:31;1.60;;;1.50;;
5871;SDS011;2962;51.312;7.378;2023-03-26T15:47:18;3.10;;;1.40;;
5871;SDS011;2962;51.312;7.378;2023-03-26T15:53:22;3.00;;;2.90;;
5871;SDS011;2962;51.312;7.378;2023-03-26T15:56:33;6.00;;;5.60;;
5871;SDS011;2962;51.312;7.378;2023-03-26T16:04:14;1.70;;;1.70;;
5871;SDS011;2962;51.312;7.378;2023-03-26T16:16:58;1.10;;;1.10;;
5871;SDS011;2962;51.312;7.378;2023-03-26T16:19:31;0.83;;;0.83;;
5871;SDS011;2962;51.312;7.378;2023-03-26T16:22:14;1.10;;;1.00;;
5871;SDS011;2962;51.312;7.378;2023-03-26T16:28:07;1.43;;;1.33;;
5871;SDS011;2962;51.312;7.378;2023-03-26T16:31:03;1.77;;;1.67;;
5871;SDS011;2962;51.312;7.378;2023-03-26T16:33:43;2.00;;;1.57;;
5871;SDS011;2962;51.312;7.378;2023-03-26T16:39:17;1.77;;;1.67;;
5871;SDS011;2962;51.312;7.378;2023-03-26T16:47:05;3.43;;;3.13;;
5871;SDS011;2962;51.312;7.378;2023-03-26T16:53:04;5.30;;;3.57;;
5871;SDS011;2962;51.312;7.378;2023-03-26T17:01:49;18.33;;;10.97;;
5871;SDS011;2962;51.312;7.378;2023-03-26T17:04:26;20.97;;;13.40;;
5871;SDS011;2962;51.312;7.378;2023-03-26T17:09:42;22.73;;;13.50;;
5871;SDS011;2962;51.312;7.378;2023-03-26T17:12:17;25.80;;;15.63;;
5871;SDS011;2962;51.312;7.378;2023-03-26T17:14:54;20.97;;;12.77;;
5871;SDS011;2962;51.312;7.378;2023-03-26T17:22:37;28.23;;;16.07;;
5871;SDS011;2962;51.312;7.378;2023-03-26T17:35:41;21.93;;;9.80;;
5871;SDS011;2962;51.312;7.378;2023-03-26T17:41:02;29.93;;;10.07;;
5871;SDS011;2962;51.312;7.378;2023-03-26T17:46:01;18.13;;;8.93;;
5871;SDS011;2962;51.312;7.378;2023-03-26T17:48:35;32.17;;;11.30;;
5871;SDS011;2962;51.312;7.378;2023-03-26T17:51:20;21.77;;;11.20;;
5871;SDS011;2962;51.312;7.378;2023-03-26T17:56:45;49.10;;;16.60;;
5871;SDS011;2962;51.312;7.378;2023-03-26T17:59:19;45.13;;;15.67;;
5871;SDS011;2962;51.312;7.378;2023-03-26T18:01:57;37.27;;;14.77;;
5871;SDS011;2962;51.312;7.378;2023-03-26T18:04:28;33.93;;;13.77;;
5871;SDS011;2962;51.312;7.378;2023-03-26T18:07:20;28.07;;;10.90;;
5871;SDS011;2962;51.312;7.378;2023-03-26T18:13:22;32.47;;;10.00;;
5871;SDS011;2962;51.312;7.378;2023-03-26T18:24:04;25.85;;;8.27;;
5871;SDS011;2962;51.312;7.378;2023-03-26T18:26:40;22.43;;;8.10;;
5871;SDS011;2962;51.312;7.378;2023-03-26T18:29:12;34.17;;;6.90;;
5871;SDS011;2962;51.312;7.378;2023-03-26T18:31:52;14.53;;;5.17;;
5871;SDS011;2962;51.312;7.378;2023-03-26T18:34:19;17.40;;;5.90;;
5871;SDS011;2962;51.312;7.378;2023-03-26T18:36:46;20.27;;;5.97;;
5871;SDS011;2962;51.312;7.378;2023-03-26T18:39:23;19.50;;;5.83;;
5871;SDS011;2962;51.312;7.378;2023-03-26T18:41:49;14.13;;;6.23;;
5871;SDS011;2962;51.312;7.378;2023-03-26T18:44:15;24.03;;;6.10;;
5871;SDS011;2962;51.312;7.378;2023-03-26T18:46:42;29.30;;;5.77;;
5871;SDS011;2962;51.312;7.378;2023-03-26T18:49:12;23.15;;;5.65;;
5871;SDS011;2962;51.312;7.378;2023-03-26T18:51:44;17.97;;;5.47;;
5871;SDS011;2962;51.312;7.378;2023-03-26T18:54:12;25.50;;;5.90;;
5871;SDS011;2962;51.312;7.378;2023-03-26T18:56:47;22.80;;;4.97;;
5871;SDS011;2962;51.312;7.378;2023-03-26T18:59:46;16.40;;;5.73;;
5871;SDS011;2962;51.312;7.378;2023-03-26T19:02:09;13.57;;;4.70;;
5871;SDS011;2962;51.312;7.378;2023-03-26T19:04:37;22.47;;;4.70;;
5871;SDS011;2962;51.312;7.378;2023-03-26T19:07:05;17.52;;;4.82;;
5871;SDS011;2962;51.312;7.378;2023-03-26T19:09:36;31.13;;;4.00;;
5871;SDS011;2962;51.312;7.378;2023-03-26T19:12:04;12.40;;;4.05;;
5871;SDS011;2962;51.312;7.378;2023-03-26T19:14:31;17.58;;;3.83;;
5871;SDS011;2962;51.312;7.378;2023-03-26T19:17:01;23.63;;;4.32;;
5871;SDS011;2962;51.312;7.378;2023-03-26T19:19:30;21.58;;;4.45;;
5871;SDS011;2962;51.312;7.378;2023-03-26T19:22:00;14.02;;;3.22;;
5871;SDS011;2962;51.312;7.378;2023-03-26T19:24:28;13.80;;;3.00;;
5871;SDS011;2962;51.312;7.378;2023-03-26T19:26:54;14.32;;;4.43;;
5871;SDS011;2962;51.312;7.378;2023-03-26T19:29:30;14.83;;;3.60;;
5871;SDS011;2962;51.312;7.378;2023-03-26T19:32:18;20.70;;;3.47;;
5871;SDS011;2962;51.312;7.378;2023-03-26T19:34:45;9.43;;;2.85;;
5871;SDS011;2962;51.312;7.378;2023-03-26T19:37:22;10.67;;;2.97;;
5871;SDS011;2962;51.312;7.378;2023-03-26T19:42:45;19.38;;;3.15;;
5871;SDS011;2962;51.312;7.378;2023-03-26T19:45:21;9.20;;;2.90;;
5871;SDS011;2962;51.312;7.378;2023-03-26T19:47:50;7.85;;;2.75;;
5871;SDS011;2962;51.312;7.378;2023-03-26T19:50:21;10.90;;;3.40;;
5871;SDS011;2962;51.312;7.378;2023-03-26T19:55:52;18.10;;;2.97;;
5871;SDS011;2962;51.312;7.378;2023-03-26T19:58:19;11.65;;;2.60;;
5871;SDS011;2962;51.312;7.378;2023-03-26T20:00:45;13.87;;;2.73;;
5871;SDS011;2962;51.312;7.378;2023-03-26T20:03:10;13.50;;;3.37;;
5871;SDS011;2962;51.312;7.378;2023-03-26T20:05:35;22.17;;;3.37;;
5871;SDS011;2962;51.312;7.378;2023-03-26T20:08:08;12.13;;;2.37;;
5871;SDS011;2962;51.312;7.378;2023-03-26T20:10:37;5.90;;;2.47;;
5871;SDS011;2962;51.312;7.378;2023-03-26T20:13:02;8.20;;;2.03;;
5871;SDS011;2962;51.312;7.378;2023-03-26T20:15:28;8.30;;;2.50;;
5871;SDS011;2962;51.312;7.378;2023-03-26T20:17:57;15.32;;;3.05;;
5871;SDS011;2962;51.312;7.378;2023-03-26T20:20:23;5.33;;;2.40;;
5871;SDS011;2962;51.312;7.378;2023-03-26T20:22:51;7.63;;;1.90;;
5871;SDS011;2962;51.312;7.378;2023-03-26T20:25:22;11.68;;;2.88;;
5871;SDS011;2962;51.312;7.378;2023-03-26T20:27:50;11.90;;;2.45;;
5871;SDS011;2962;51.312;7.378;2023-03-26T20:30:17;7.63;;;1.17;;
5871;SDS011;2962;51.312;7.378;2023-03-26T20:32:43;18.07;;;2.73;;
5871;SDS011;2962;51.312;7.378;2023-03-26T20:35:22;8.73;;;2.03;;
5871;SDS011;2962;51.312;7.378;2023-03-26T20:37:48;9.32;;;1.75;;
5871;SDS011;2962;51.312;7.378;2023-03-26T20:40:15;7.47;;;1.88;;
5871;SDS011;2962;51.312;7.378;2023-03-26T20:42:41;6.40;;;1.83;;
5871;SDS011;2962;51.312;7.378;2023-03-26T20:45:18;3.92;;;1.52;;
5871;SDS011;2962;51.312;7.378;2023-03-26T20:47:46;7.28;;;1.63;;
5871;SDS011;2962;51.312;7.378;2023-03-26T20:50:16;3.25;;;1.40;;
5871;SDS011;2962;51.312;7.378;2023-03-26T20:52:46;8.02;;;1.77;;
5871;SDS011;2962;51.312;7.378;2023-03-26T20:55:12;12.02;;;1.55;;
5871;SDS011;2962;51.312;7.378;2023-03-26T20:57:39;1.63;;;1.30;;
5871;SDS011;2962;51.312;7.378;2023-03-26T21:00:05;9.17;;;1.47;;
5871;SDS011;2962;51.312;7.378;2023-03-26T21:02:41;11.73;;;1.60;;
5871;SDS011;2962;51.312;7.378;2023-03-26T21:05:07;9.27;;;1.93;;